sensor_id;sensor_type;location;lat;lon;timestamp;temperature;humidity
43695;DHT22;29300;43.560;1.294;2022-12-24T00:01:07;9.40;99.90
43695;DHT22;29300;43.560;1.294;2022-12-24T00:03:34;9.40;99.90
43695;DHT22;29300;43.560;1.294;2022-12-24T00:06:15;9.30;99.90
43695;DHT22;29300;43.560;1.294;2022-12-24T00:08:41;9.30;99.90
43695;DHT22;29300;43.560;1.294;2022-12-24T00:11:07;9.20;99.90
43695;DHT22;29300;43.560;1.294;2022-12-24T00:13:33;9.10;99.90
43695;DHT22;29300;43.560;1.294;2022-12-24T00:15:59;9.20;99.90
43695;DHT22;29300;43.560;1.294;2022-12-24T00:18:25;9.10;99.90
43695;DHT22;29300;43.560;1.294;2022-12-24T00:20:51;9.10;99.90
43695;DHT22;29300;43.560;1.294;2022-12-24T00:23:17;9.10;99.90
43695;DHT22;29300;43.560;1.294;2022-12-24T00:25:43;9.10;99.90
43695;DHT22;29300;43.560;1.294;2022-12-24T00:28:09;9.10;99.90
43695;DHT22;29300;43.560;1.294;2022-12-24T00:30:37;9.10;99.90
43695;DHT22;29300;43.560;1.294;2022-12-24T00:33:04;9.10;99.90
43695;DHT22;29300;43.560;1.294;2022-12-24T00:35:32;9.10;99.90
43695;DHT22;29300;43.560;1.294;2022-12-24T00:37:57;9.00;99.90
43695;DHT22;29300;43.560;1.294;2022-12-24T00:40:23;9.00;99.90
43695;DHT22;29300;43.560;1.294;2022-12-24T00:42:49;9.00;99.90
43695;DHT22;29300;43.560;1.294;2022-12-24T00:45:14;8.80;99.90
43695;DHT22;29300;43.560;1.294;2022-12-24T00:47:40;8.90;99.90
43695;DHT22;29300;43.560;1.294;2022-12-24T00:50:06;9.00;99.90
43695;DHT22;29300;43.560;1.294;2022-12-24T00:52:32;9.00;99.90
43695;DHT22;29300;43.560;1.294;2022-12-24T00:54:58;8.90;99.90
43695;DHT22;29300;43.560;1.294;2022-12-24T00:57:23;8.90;99.90
43695;DHT22;29300;43.560;1.294;2022-12-24T00:59:49;8.80;99.90
43695;DHT22;29300;43.560;1.294;2022-12-24T01:02:15;8.80;99.90
43695;DHT22;29300;43.560;1.294;2022-12-24T01:04:40;8.70;99.90
43695;DHT22;29300;43.560;1.294;2022-12-24T01:07:25;8.80;99.90
43695;DHT22;29300;43.560;1.294;2022-12-24T01:09:50;8.80;99.90
43695;DHT22;29300;43.560;1.294;2022-12-24T01:12:16;8.80;99.90
43695;DHT22;29300;43.560;1.294;2022-12-24T01:14:42;8.80;99.90
43695;DHT22;29300;43.560;1.294;2022-12-24T01:17:07;8.90;99.90
43695;DHT22;29300;43.560;1.294;2022-12-24T01:19:33;8.70;99.90
43695;DHT22;29300;43.560;1.294;2022-12-24T01:21:59;8.40;99.90
43695;DHT22;29300;43.560;1.294;2022-12-24T01:24:24;8.40;99.90
43695;DHT22;29300;43.560;1.294;2022-12-24T01:26:50;8.50;99.90
43695;DHT22;29300;43.560;1.294;2022-12-24T01:29:16;8.60;99.90
43695;DHT22;29300;43.560;1.294;2022-12-24T01:31:43;8.60;99.90
43695;DHT22;29300;43.560;1.294;2022-12-24T01:34:09;8.70;99.90
43695;DHT22;29300;43.560;1.294;2022-12-24T01:36:35;8.70;99.90
43695;DHT22;29300;43.560;1.294;2022-12-24T01:39:01;8.70;99.90
43695;DHT22;29300;43.560;1.294;2022-12-24T01:41:29;8.80;99.90
43695;DHT22;29300;43.560;1.294;2022-12-24T01:47:05;8.80;99.90
43695;DHT22;29300;43.560;1.294;2022-12-24T01:49:31;8.90;99.90
43695;DHT22;29300;43.560;1.294;2022-12-24T01:52:02;8.80;99.90
43695;DHT22;29300;43.560;1.294;2022-12-24T01:54:33;8.80;99.90
43695;DHT22;29300;43.560;1.294;2022-12-24T01:57:31;8.80;99.90
43695;DHT22;29300;43.560;1.294;2022-12-24T01:59:57;8.70;99.90
43695;DHT22;29300;43.560;1.294;2022-12-24T02:02:25;8.80;99.90
43695;DHT22;29300;43.560;1.294;2022-12-24T02:05:15;8.70;99.90
43695;DHT22;29300;43.560;1.294;2022-12-24T02:07:43;8.60;99.90
43695;DHT22;29300;43.560;1.294;2022-12-24T02:10:12;8.60;99.90
43695;DHT22;29300;43.560;1.294;2022-12-24T02:12:38;8.50;99.90
43695;DHT22;29300;43.560;1.294;2022-12-24T02:15:07;8.60;99.90
43695;DHT22;29300;43.560;1.294;2022-12-24T02:23:30;8.20;99.90
43695;DHT22;29300;43.560;1.294;2022-12-24T02:34:08;8.50;99.90
43695;DHT22;29300;43.560;1.294;2022-12-24T02:36:47;8.40;99.90
43695;DHT22;29300;43.560;1.294;2022-12-24T02:39:24;8.40;99.90
43695;DHT22;29300;43.560;1.294;2022-12-24T02:41:52;8.40;99.90
43695;DHT22;29300;43.560;1.294;2022-12-24T02:47:08;8.30;99.90
43695;DHT22;29300;43.560;1.294;2022-12-24T02:49:35;8.30;99.90
43695;DHT22;29300;43.560;1.294;2022-12-24T02:52:01;8.30;99.90
43695;DHT22;29300;43.560;1.294;2022-12-24T02:54:27;8.30;99.90
43695;DHT22;29300;43.560;1.294;2022-12-24T02:57:05;8.30;99.90
43695;DHT22;29300;43.560;1.294;2022-12-24T02:59:56;8.20;99.90
43695;DHT22;29300;43.560;1.294;2022-12-24T03:10:55;8.20;99.90
43695;DHT22;29300;43.560;1.294;2022-12-24T03:13:23;8.10;99.90
43695;DHT22;29300;43.560;1.294;2022-12-24T03:15:51;8.00;99.90
43695;DHT22;29300;43.560;1.294;2022-12-24T03:18:20;8.00;99.90
43695;DHT22;29300;43.560;1.294;2022-12-24T03:20:54;8.10;99.90
43695;DHT22;29300;43.560;1.294;2022-12-24T03:23:22;8.00;99.90
43695;DHT22;29300;43.560;1.294;2022-12-24T03:25:48;8.00;99.90
43695;DHT22;29300;43.560;1.294;2022-12-24T03:28:16;8.00;99.90
43695;DHT22;29300;43.560;1.294;2022-12-24T03:30:45;7.90;99.90
43695;DHT22;29300;43.560;1.294;2022-12-24T03:33:12;7.90;99.90
43695;DHT22;29300;43.560;1.294;2022-12-24T03:35:38;7.80;99.90
43695;DHT22;29300;43.560;1.294;2022-12-24T03:38:04;7.70;99.90
43695;DHT22;29300;43.560;1.294;2022-12-24T03:40:30;7.80;99.90
43695;DHT22;29300;43.560;1.294;2022-12-24T03:42:56;7.70;99.90
43695;DHT22;29300;43.560;1.294;2022-12-24T03:45:22;7.60;99.90
43695;DHT22;29300;43.560;1.294;2022-12-24T03:47:48;7.70;99.90
43695;DHT22;29300;43.560;1.294;2022-12-24T03:50:13;7.70;99.90
43695;DHT22;29300;43.560;1.294;2022-12-24T03:52:39;7.70;99.90
43695;DHT22;29300;43.560;1.294;2022-12-24T03:55:05;7.60;99.90
43695;DHT22;29300;43.560;1.294;2022-12-24T03:57:31;7.60;99.90
43695;DHT22;29300;43.560;1.294;2022-12-24T03:59:57;7.60;99.90
43695;DHT22;29300;43.560;1.294;2022-12-24T04:02:22;7.70;99.90
43695;DHT22;29300;43.560;1.294;2022-12-24T04:04:48;7.60;99.90
43695;DHT22;29300;43.560;1.294;2022-12-24T04:07:14;7.60;99.90
43695;DHT22;29300;43.560;1.294;2022-12-24T04:09:39;7.60;99.90
43695;DHT22;29300;43.560;1.294;2022-12-24T04:12:06;7.60;99.90
43695;DHT22;29300;43.560;1.294;2022-12-24T04:14:32;7.60;99.90
43695;DHT22;29300;43.560;1.294;2022-12-24T04:16:58;7.60;99.90
43695;DHT22;29300;43.560;1.294;2022-12-24T04:19:23;7.60;99.90
43695;DHT22;29300;43.560;1.294;2022-12-24T04:21:49;7.60;99.90
43695;DHT22;29300;43.560;1.294;2022-12-24T04:24:15;7.60;99.90
43695;DHT22;29300;43.560;1.294;2022-12-24T04:26:40;7.50;99.90
43695;DHT22;29300;43.560;1.294;2022-12-24T04:29:06;7.40;99.90
43695;DHT22;29300;43.560;1.294;2022-12-24T04:31:32;7.50;99.90
43695;DHT22;29300;43.560;1.294;2022-12-24T04:33:57;7.40;99.90
43695;DHT22;29300;43.560;1.294;2022-12-24T04:36:23;7.60;99.90
43695;DHT22;29300;43.560;1.294;2022-12-24T04:38:49;7.60;99.90
43695;DHT22;29300;43.560;1.294;2022-12-24T04:41:16;7.50;99.90
43695;DHT22;29300;43.560;1.294;2022-12-24T04:43:42;7.50;99.90
43695;DHT22;29300;43.560;1.294;2022-12-24T04:46:17;7.50;99.90
43695;DHT22;29300;43.560;1.294;2022-12-24T04:48:44;7.50;99.90
43695;DHT22;29300;43.560;1.294;2022-12-24T04:51:10;7.40;99.90
43695;DHT22;29300;43.560;1.294;2022-12-24T04:53:37;7.40;99.90
43695;DHT22;29300;43.560;1.294;2022-12-24T04:56:08;7.40;99.90
43695;DHT22;29300;43.560;1.294;2022-12-24T04:58:36;7.40;99.90
43695;DHT22;29300;43.560;1.294;2022-12-24T05:01:11;7.30;99.90
43695;DHT22;29300;43.560;1.294;2022-12-24T05:03:37;7.10;99.90
43695;DHT22;29300;43.560;1.294;2022-12-24T05:06:04;7.20;99.90
43695;DHT22;29300;43.560;1.294;2022-12-24T05:08:30;7.20;99.90
43695;DHT22;29300;43.560;1.294;2022-12-24T05:10:57;7.20;99.90
43695;DHT22;29300;43.560;1.294;2022-12-24T05:13:24;7.30;99.90
43695;DHT22;29300;43.560;1.294;2022-12-24T05:15:50;7.20;99.90
43695;DHT22;29300;43.560;1.294;2022-12-24T05:18:16;7.20;99.90
43695;DHT22;29300;43.560;1.294;2022-12-24T05:20:41;7.30;99.90
43695;DHT22;29300;43.560;1.294;2022-12-24T05:23:12;7.30;99.90
43695;DHT22;29300;43.560;1.294;2022-12-24T05:25:57;7.40;99.90
43695;DHT22;29300;43.560;1.294;2022-12-24T05:28:42;7.10;99.90
43695;DHT22;29300;43.560;1.294;2022-12-24T05:31:08;7.20;99.90
43695;DHT22;29300;43.560;1.294;2022-12-24T05:33:33;7.20;99.90
43695;DHT22;29300;43.560;1.294;2022-12-24T05:35:59;7.30;99.90
43695;DHT22;29300;43.560;1.294;2022-12-24T05:38:24;7.20;99.90
43695;DHT22;29300;43.560;1.294;2022-12-24T05:40:50;7.20;99.90
43695;DHT22;29300;43.560;1.294;2022-12-24T05:43:16;7.20;99.90
43695;DHT22;29300;43.560;1.294;2022-12-24T05:45:41;7.10;99.90
43695;DHT22;29300;43.560;1.294;2022-12-24T05:48:07;7.00;99.90
43695;DHT22;29300;43.560;1.294;2022-12-24T05:50:35;7.00;99.90
43695;DHT22;29300;43.560;1.294;2022-12-24T05:53:01;7.00;99.90
43695;DHT22;29300;43.560;1.294;2022-12-24T05:55:26;6.90;99.90
43695;DHT22;29300;43.560;1.294;2022-12-24T05:57:52;7.00;99.90
43695;DHT22;29300;43.560;1.294;2022-12-24T06:00:18;7.00;99.90
43695;DHT22;29300;43.560;1.294;2022-12-24T06:02:44;6.90;99.90
43695;DHT22;29300;43.560;1.294;2022-12-24T06:05:09;6.90;99.90
43695;DHT22;29300;43.560;1.294;2022-12-24T06:07:35;7.10;99.90
43695;DHT22;29300;43.560;1.294;2022-12-24T06:10:01;7.00;99.90
43695;DHT22;29300;43.560;1.294;2022-12-24T06:12:27;7.00;99.90
43695;DHT22;29300;43.560;1.294;2022-12-24T06:14:52;6.80;99.90
43695;DHT22;29300;43.560;1.294;2022-12-24T06:17:18;6.80;99.90
43695;DHT22;29300;43.560;1.294;2022-12-24T06:19:44;7.00;99.90
43695;DHT22;29300;43.560;1.294;2022-12-24T06:22:09;6.90;99.90
43695;DHT22;29300;43.560;1.294;2022-12-24T06:24:35;6.90;99.90
43695;DHT22;29300;43.560;1.294;2022-12-24T06:27:00;6.80;99.90
43695;DHT22;29300;43.560;1.294;2022-12-24T06:29:26;6.80;99.90
43695;DHT22;29300;43.560;1.294;2022-12-24T06:31:52;6.90;99.90
43695;DHT22;29300;43.560;1.294;2022-12-24T06:34:17;6.70;99.90
43695;DHT22;29300;43.560;1.294;2022-12-24T06:36:43;6.80;99.90
43695;DHT22;29300;43.560;1.294;2022-12-24T06:39:09;6.80;99.90
43695;DHT22;29300;43.560;1.294;2022-12-24T06:41:34;6.80;99.90
43695;DHT22;29300;43.560;1.294;2022-12-24T06:44:00;6.90;99.90
43695;DHT22;29300;43.560;1.294;2022-12-24T06:46:26;6.90;99.90
43695;DHT22;29300;43.560;1.294;2022-12-24T06:48:52;6.80;99.90
43695;DHT22;29300;43.560;1.294;2022-12-24T06:51:20;6.70;99.90
43695;DHT22;29300;43.560;1.294;2022-12-24T06:53:47;6.70;99.90
43695;DHT22;29300;43.560;1.294;2022-12-24T06:56:15;6.70;99.90
43695;DHT22;29300;43.560;1.294;2022-12-24T06:58:40;6.70;99.90
43695;DHT22;29300;43.560;1.294;2022-12-24T07:01:08;6.70;99.90
43695;DHT22;29300;43.560;1.294;2022-12-24T07:03:34;6.60;99.90
43695;DHT22;29300;43.560;1.294;2022-12-24T07:06:00;6.70;99.90
43695;DHT22;29300;43.560;1.294;2022-12-24T07:08:26;6.60;99.90
43695;DHT22;29300;43.560;1.294;2022-12-24T07:10:52;6.60;99.90
43695;DHT22;29300;43.560;1.294;2022-12-24T07:13:18;6.70;99.90
43695;DHT22;29300;43.560;1.294;2022-12-24T07:15:44;6.70;99.90
43695;DHT22;29300;43.560;1.294;2022-12-24T07:18:11;6.60;99.90
43695;DHT22;29300;43.560;1.294;2022-12-24T07:20:37;6.70;99.90
43695;DHT22;29300;43.560;1.294;2022-12-24T07:23:03;6.70;99.90
43695;DHT22;29300;43.560;1.294;2022-12-24T07:25:29;6.60;99.90
43695;DHT22;29300;43.560;1.294;2022-12-24T07:27:55;6.60;99.90
43695;DHT22;29300;43.560;1.294;2022-12-24T07:30:21;6.60;99.90
43695;DHT22;29300;43.560;1.294;2022-12-24T07:32:47;6.60;99.90
43695;DHT22;29300;43.560;1.294;2022-12-24T07:35:12;6.60;99.90
43695;DHT22;29300;43.560;1.294;2022-12-24T07:37:38;6.60;99.90
43695;DHT22;29300;43.560;1.294;2022-12-24T07:40:04;6.70;99.90
43695;DHT22;29300;43.560;1.294;2022-12-24T07:42:32;6.60;99.90
43695;DHT22;29300;43.560;1.294;2022-12-24T07:44:58;6.60;99.90
43695;DHT22;29300;43.560;1.294;2022-12-24T07:47:24;6.70;99.90
43695;DHT22;29300;43.560;1.294;2022-12-24T07:49:49;6.60;99.90
43695;DHT22;29300;43.560;1.294;2022-12-24T07:52:15;6.70;99.90
43695;DHT22;29300;43.560;1.294;2022-12-24T07:54:41;6.70;99.90
43695;DHT22;29300;43.560;1.294;2022-12-24T07:57:06;6.90;99.90
43695;DHT22;29300;43.560;1.294;2022-12-24T07:59:32;7.00;99.90
43695;DHT22;29300;43.560;1.294;2022-12-24T08:01:58;7.10;99.90
43695;DHT22;29300;43.560;1.294;2022-12-24T08:04:24;7.00;99.90
43695;DHT22;29300;43.560;1.294;2022-12-24T08:06:49;7.00;99.90
43695;DHT22;29300;43.560;1.294;2022-12-24T08:09:15;7.00;99.90
43695;DHT22;29300;43.560;1.294;2022-12-24T08:11:41;7.00;99.90
43695;DHT22;29300;43.560;1.294;2022-12-24T08:14:07;7.10;99.90
43695;DHT22;29300;43.560;1.294;2022-12-24T08:16:33;7.10;99.90
43695;DHT22;29300;43.560;1.294;2022-12-24T08:18:58;7.00;99.90
43695;DHT22;29300;43.560;1.294;2022-12-24T08:21:24;7.10;99.90
43695;DHT22;29300;43.560;1.294;2022-12-24T08:23:50;7.20;99.90
43695;DHT22;29300;43.560;1.294;2022-12-24T08:26:16;7.30;99.90
43695;DHT22;29300;43.560;1.294;2022-12-24T08:28:42;7.20;99.90
43695;DHT22;29300;43.560;1.294;2022-12-24T08:31:08;7.30;99.90
43695;DHT22;29300;43.560;1.294;2022-12-24T08:33:34;7.50;99.90
43695;DHT22;29300;43.560;1.294;2022-12-24T08:36:00;7.50;99.90
43695;DHT22;29300;43.560;1.294;2022-12-24T08:38:27;7.60;99.90
43695;DHT22;29300;43.560;1.294;2022-12-24T08:40:53;7.70;99.90
43695;DHT22;29300;43.560;1.294;2022-12-24T08:43:19;7.80;99.90
43695;DHT22;29300;43.560;1.294;2022-12-24T08:45:46;7.80;99.90
43695;DHT22;29300;43.560;1.294;2022-12-24T08:48:13;7.90;99.90
43695;DHT22;29300;43.560;1.294;2022-12-24T08:50:40;7.90;99.90
43695;DHT22;29300;43.560;1.294;2022-12-24T08:53:06;7.90;99.90
43695;DHT22;29300;43.560;1.294;2022-12-24T08:55:32;7.90;99.90
43695;DHT22;29300;43.560;1.294;2022-12-24T08:57:58;8.00;99.90
43695;DHT22;29300;43.560;1.294;2022-12-24T09:00:24;8.00;99.90
43695;DHT22;29300;43.560;1.294;2022-12-24T09:02:50;8.20;99.90
43695;DHT22;29300;43.560;1.294;2022-12-24T09:05:16;8.40;99.90
43695;DHT22;29300;43.560;1.294;2022-12-24T09:07:42;8.80;99.90
43695;DHT22;29300;43.560;1.294;2022-12-24T09:10:09;9.30;99.90
43695;DHT22;29300;43.560;1.294;2022-12-24T09:12:35;9.70;99.90
43695;DHT22;29300;43.560;1.294;2022-12-24T09:15:02;10.00;99.90
43695;DHT22;29300;43.560;1.294;2022-12-24T09:17:28;10.30;99.90
43695;DHT22;29300;43.560;1.294;2022-12-24T09:19:53;10.30;99.90
43695;DHT22;29300;43.560;1.294;2022-12-24T09:22:19;10.30;99.90
43695;DHT22;29300;43.560;1.294;2022-12-24T09:24:45;10.30;99.90
43695;DHT22;29300;43.560;1.294;2022-12-24T09:27:11;10.10;99.90
43695;DHT22;29300;43.560;1.294;2022-12-24T09:29:36;9.80;99.90
43695;DHT22;29300;43.560;1.294;2022-12-24T09:32:05;9.80;99.90
43695;DHT22;29300;43.560;1.294;2022-12-24T09:34:31;9.50;99.90
43695;DHT22;29300;43.560;1.294;2022-12-24T09:36:57;9.60;99.90
43695;DHT22;29300;43.560;1.294;2022-12-24T09:39:24;9.60;99.90
43695;DHT22;29300;43.560;1.294;2022-12-24T09:47:10;10.00;99.90
43695;DHT22;29300;43.560;1.294;2022-12-24T09:49:42;10.10;99.90
43695;DHT22;29300;43.560;1.294;2022-12-24T09:52:12;9.90;99.90
43695;DHT22;29300;43.560;1.294;2022-12-24T09:54:44;9.90;99.90
43695;DHT22;29300;43.560;1.294;2022-12-24T09:57:26;10.10;99.90
43695;DHT22;29300;43.560;1.294;2022-12-24T09:59:52;10.40;99.90
43695;DHT22;29300;43.560;1.294;2022-12-24T10:02:19;10.60;99.90
43695;DHT22;29300;43.560;1.294;2022-12-24T10:04:46;10.80;99.90
43695;DHT22;29300;43.560;1.294;2022-12-24T10:08:34;10.80;99.90
43695;DHT22;29300;43.560;1.294;2022-12-24T10:19:22;11.10;99.90
43695;DHT22;29300;43.560;1.294;2022-12-24T10:24:37;11.40;99.90
43695;DHT22;29300;43.560;1.294;2022-12-24T10:27:11;11.40;99.90
43695;DHT22;29300;43.560;1.294;2022-12-24T10:29:42;11.40;99.90
43695;DHT22;29300;43.560;1.294;2022-12-24T10:34:39;11.60;99.90
43695;DHT22;29300;43.560;1.294;2022-12-24T10:37:05;11.70;99.90
43695;DHT22;29300;43.560;1.294;2022-12-24T10:39:33;11.80;99.90
43695;DHT22;29300;43.560;1.294;2022-12-24T10:41:59;11.90;99.90
43695;DHT22;29300;43.560;1.294;2022-12-24T10:44:28;11.90;99.90
43695;DHT22;29300;43.560;1.294;2022-12-24T10:46:55;12.00;99.90
43695;DHT22;29300;43.560;1.294;2022-12-24T10:49:42;12.10;99.90
43695;DHT22;29300;43.560;1.294;2022-12-24T10:52:14;12.20;99.90
43695;DHT22;29300;43.560;1.294;2022-12-24T10:57:31;12.20;99.90
43695;DHT22;29300;43.560;1.294;2022-12-24T10:59:57;12.40;99.90
43695;DHT22;29300;43.560;1.294;2022-12-24T11:02:34;12.50;99.90
43695;DHT22;29300;43.560;1.294;2022-12-24T11:05:03;12.80;99.90
43695;DHT22;29300;43.560;1.294;2022-12-24T11:07:30;12.90;99.90
43695;DHT22;29300;43.560;1.294;2022-12-24T11:09:59;12.80;99.90
43695;DHT22;29300;43.560;1.294;2022-12-24T11:12:45;12.80;99.90
43695;DHT22;29300;43.560;1.294;2022-12-24T11:15:29;12.90;99.90
43695;DHT22;29300;43.560;1.294;2022-12-24T11:18:04;13.00;99.90
43695;DHT22;29300;43.560;1.294;2022-12-24T11:20:36;13.00;99.90
43695;DHT22;29300;43.560;1.294;2022-12-24T11:23:03;12.80;99.90
43695;DHT22;29300;43.560;1.294;2022-12-24T11:25:34;12.90;99.90
43695;DHT22;29300;43.560;1.294;2022-12-24T11:28:24;12.90;99.90
43695;DHT22;29300;43.560;1.294;2022-12-24T11:31:25;13.00;99.90
43695;DHT22;29300;43.560;1.294;2022-12-24T11:33:51;13.20;99.90
43695;DHT22;29300;43.560;1.294;2022-12-24T11:36:22;13.30;99.90
43695;DHT22;29300;43.560;1.294;2022-12-24T11:38:55;13.40;99.90
43695;DHT22;29300;43.560;1.294;2022-12-24T11:41:21;13.40;99.90
43695;DHT22;29300;43.560;1.294;2022-12-24T11:43:49;13.40;99.90
43695;DHT22;29300;43.560;1.294;2022-12-24T11:46:36;13.40;99.90
43695;DHT22;29300;43.560;1.294;2022-12-24T11:49:11;13.40;99.90
43695;DHT22;29300;43.560;1.294;2022-12-24T11:51:39;13.40;99.90
43695;DHT22;29300;43.560;1.294;2022-12-24T11:54:25;13.40;99.90
43695;DHT22;29300;43.560;1.294;2022-12-24T11:56:54;14.00;99.90
43695;DHT22;29300;43.560;1.294;2022-12-24T11:59:36;14.20;99.90
43695;DHT22;29300;43.560;1.294;2022-12-24T12:02:22;14.40;99.90
43695;DHT22;29300;43.560;1.294;2022-12-24T12:04:58;14.40;99.90
43695;DHT22;29300;43.560;1.294;2022-12-24T12:07:27;14.20;99.90
43695;DHT22;29300;43.560;1.294;2022-12-24T12:13:16;14.10;99.90
43695;DHT22;29300;43.560;1.294;2022-12-24T12:19:02;14.40;99.90
43695;DHT22;29300;43.560;1.294;2022-12-24T12:21:39;15.00;99.90
43695;DHT22;29300;43.560;1.294;2022-12-24T12:24:12;15.20;99.90
43695;DHT22;29300;43.560;1.294;2022-12-24T12:26:40;15.20;99.90
43695;DHT22;29300;43.560;1.294;2022-12-24T12:29:43;15.20;99.90
43695;DHT22;29300;43.560;1.294;2022-12-24T12:32:09;15.10;99.90
43695;DHT22;29300;43.560;1.294;2022-12-24T12:34:43;15.40;99.90
43695;DHT22;29300;43.560;1.294;2022-12-24T12:37:47;15.80;99.90
43695;DHT22;29300;43.560;1.294;2022-12-24T12:40:16;15.80;99.90
43695;DHT22;29300;43.560;1.294;2022-12-24T12:43:13;15.50;99.90
43695;DHT22;29300;43.560;1.294;2022-12-24T12:57:18;15.70;99.90
43695;DHT22;29300;43.560;1.294;2022-12-24T12:59:54;16.00;99.90
43695;DHT22;29300;43.560;1.294;2022-12-24T13:08:00;16.30;99.90
43695;DHT22;29300;43.560;1.294;2022-12-24T13:19:28;16.30;99.90
43695;DHT22;29300;43.560;1.294;2022-12-24T13:21:57;16.10;99.90
43695;DHT22;29300;43.560;1.294;2022-12-24T13:24:25;16.20;99.90
43695;DHT22;29300;43.560;1.294;2022-12-24T13:29:58;16.20;99.90
43695;DHT22;29300;43.560;1.294;2022-12-24T13:34:57;16.00;99.90
43695;DHT22;29300;43.560;1.294;2022-12-24T13:37:31;16.00;99.90
43695;DHT22;29300;43.560;1.294;2022-12-24T13:50:41;16.10;99.90
43695;DHT22;29300;43.560;1.294;2022-12-24T13:58:20;16.10;99.90
43695;DHT22;29300;43.560;1.294;2022-12-24T14:00:54;16.30;99.90
43695;DHT22;29300;43.560;1.294;2022-12-24T14:06:01;16.20;99.90
43695;DHT22;29300;43.560;1.294;2022-12-24T14:08:43;16.30;99.90
43695;DHT22;29300;43.560;1.294;2022-12-24T14:11:15;16.50;99.90
43695;DHT22;29300;43.560;1.294;2022-12-24T14:16:12;16.30;99.90
43695;DHT22;29300;43.560;1.294;2022-12-24T14:18:41;16.10;99.90
43695;DHT22;29300;43.560;1.294;2022-12-24T14:21:22;15.90;99.90
43695;DHT22;29300;43.560;1.294;2022-12-24T14:23:56;16.30;99.90
43695;DHT22;29300;43.560;1.294;2022-12-24T14:26:29;16.20;99.90
43695;DHT22;29300;43.560;1.294;2022-12-24T14:29:04;16.00;99.90
43695;DHT22;29300;43.560;1.294;2022-12-24T14:31:31;16.00;99.90
43695;DHT22;29300;43.560;1.294;2022-12-24T14:34:12;15.90;99.90
43695;DHT22;29300;43.560;1.294;2022-12-24T14:36:39;16.10;99.90
43695;DHT22;29300;43.560;1.294;2022-12-24T14:39:08;16.20;99.90
43695;DHT22;29300;43.560;1.294;2022-12-24T14:41:51;16.10;99.90
43695;DHT22;29300;43.560;1.294;2022-12-24T14:44:39;16.00;99.90
43695;DHT22;29300;43.560;1.294;2022-12-24T14:47:42;16.00;99.90
43695;DHT22;29300;43.560;1.294;2022-12-24T14:50:35;16.10;99.90
43695;DHT22;29300;43.560;1.294;2022-12-24T14:55:43;15.70;99.90
43695;DHT22;29300;43.560;1.294;2022-12-24T14:58:31;15.80;99.90
43695;DHT22;29300;43.560;1.294;2022-12-24T15:01:00;15.80;99.90
43695;DHT22;29300;43.560;1.294;2022-12-24T15:03:31;15.80;99.90
43695;DHT22;29300;43.560;1.294;2022-12-24T15:06:01;15.80;99.90
43695;DHT22;29300;43.560;1.294;2022-12-24T15:08:44;15.60;99.90
43695;DHT22;29300;43.560;1.294;2022-12-24T15:11:17;15.30;99.90
43695;DHT22;29300;43.560;1.294;2022-12-24T15:13:52;15.20;99.90
43695;DHT22;29300;43.560;1.294;2022-12-24T15:18:52;15.20;99.90
43695;DHT22;29300;43.560;1.294;2022-12-24T15:21:36;15.00;99.90
43695;DHT22;29300;43.560;1.294;2022-12-24T15:24:26;14.90;99.90
43695;DHT22;29300;43.560;1.294;2022-12-24T15:26:52;14.90;99.90
43695;DHT22;29300;43.560;1.294;2022-12-24T15:29:27;15.00;99.90
43695;DHT22;29300;43.560;1.294;2022-12-24T15:31:58;15.40;99.90
43695;DHT22;29300;43.560;1.294;2022-12-24T15:34:34;15.30;99.90
43695;DHT22;29300;43.560;1.294;2022-12-24T15:39:35;14.80;99.90
43695;DHT22;29300;43.560;1.294;2022-12-24T15:42:01;14.70;99.90
43695;DHT22;29300;43.560;1.294;2022-12-24T15:47:20;14.50;99.90
43695;DHT22;29300;43.560;1.294;2022-12-24T15:49:50;14.60;99.90
43695;DHT22;29300;43.560;1.294;2022-12-24T15:52:19;14.40;99.90
43695;DHT22;29300;43.560;1.294;2022-12-24T15:54:48;14.30;99.90
43695;DHT22;29300;43.560;1.294;2022-12-24T15:57:31;14.40;99.90
43695;DHT22;29300;43.560;1.294;2022-12-24T15:59:59;14.30;99.90
43695;DHT22;29300;43.560;1.294;2022-12-24T16:02:37;14.20;99.90
43695;DHT22;29300;43.560;1.294;2022-12-24T16:10:45;14.10;99.90
43695;DHT22;29300;43.560;1.294;2022-12-24T16:13:19;13.90;99.90
43695;DHT22;29300;43.560;1.294;2022-12-24T16:16:00;13.80;99.90
43695;DHT22;29300;43.560;1.294;2022-12-24T16:18:36;13.60;99.90
43695;DHT22;29300;43.560;1.294;2022-12-24T16:21:04;13.40;99.90
43695;DHT22;29300;43.560;1.294;2022-12-24T16:23:46;13.30;99.90
43695;DHT22;29300;43.560;1.294;2022-12-24T16:26:12;13.20;99.90
43695;DHT22;29300;43.560;1.294;2022-12-24T16:28:38;13.10;99.90
43695;DHT22;29300;43.560;1.294;2022-12-24T16:31:04;13.10;99.90
43695;DHT22;29300;43.560;1.294;2022-12-24T16:33:30;13.00;99.90
43695;DHT22;29300;43.560;1.294;2022-12-24T16:35:56;13.00;99.90
43695;DHT22;29300;43.560;1.294;2022-12-24T16:38:22;12.90;99.90
43695;DHT22;29300;43.560;1.294;2022-12-24T16:40:48;12.80;99.90
43695;DHT22;29300;43.560;1.294;2022-12-24T16:43:13;12.70;99.90
43695;DHT22;29300;43.560;1.294;2022-12-24T16:46:04;12.70;99.90
43695;DHT22;29300;43.560;1.294;2022-12-24T16:48:31;12.60;99.90
43695;DHT22;29300;43.560;1.294;2022-12-24T16:51:01;12.50;99.90
43695;DHT22;29300;43.560;1.294;2022-12-24T16:53:26;12.30;99.90
43695;DHT22;29300;43.560;1.294;2022-12-24T16:55:52;12.20;99.90
43695;DHT22;29300;43.560;1.294;2022-12-24T16:58:19;12.00;99.90
43695;DHT22;29300;43.560;1.294;2022-12-24T17:00:45;12.00;99.90
43695;DHT22;29300;43.560;1.294;2022-12-24T17:03:11;12.10;99.90
43695;DHT22;29300;43.560;1.294;2022-12-24T17:05:38;12.00;99.90
43695;DHT22;29300;43.560;1.294;2022-12-24T17:08:05;11.90;99.90
43695;DHT22;29300;43.560;1.294;2022-12-24T17:10:31;12.00;99.90
43695;DHT22;29300;43.560;1.294;2022-12-24T17:12:57;12.10;99.90
43695;DHT22;29300;43.560;1.294;2022-12-24T17:15:23;12.10;99.90
43695;DHT22;29300;43.560;1.294;2022-12-24T17:17:48;12.00;99.90
43695;DHT22;29300;43.560;1.294;2022-12-24T17:20:14;12.30;99.90
43695;DHT22;29300;43.560;1.294;2022-12-24T17:22:40;11.80;99.90
43695;DHT22;29300;43.560;1.294;2022-12-24T17:25:06;11.80;99.90
43695;DHT22;29300;43.560;1.294;2022-12-24T17:27:33;11.70;99.90
43695;DHT22;29300;43.560;1.294;2022-12-24T17:29:59;11.70;99.90
43695;DHT22;29300;43.560;1.294;2022-12-24T17:32:25;11.70;99.90
43695;DHT22;29300;43.560;1.294;2022-12-24T17:34:54;11.70;99.90
43695;DHT22;29300;43.560;1.294;2022-12-24T17:37:19;11.70;99.90
43695;DHT22;29300;43.560;1.294;2022-12-24T17:39:45;11.80;99.90
43695;DHT22;29300;43.560;1.294;2022-12-24T17:42:11;11.70;99.90
43695;DHT22;29300;43.560;1.294;2022-12-24T17:44:36;11.60;99.90
43695;DHT22;29300;43.560;1.294;2022-12-24T17:47:03;11.60;99.90
43695;DHT22;29300;43.560;1.294;2022-12-24T17:49:29;11.40;99.90
43695;DHT22;29300;43.560;1.294;2022-12-24T17:51:56;11.30;99.90
43695;DHT22;29300;43.560;1.294;2022-12-24T17:54:21;11.30;99.90
43695;DHT22;29300;43.560;1.294;2022-12-24T17:56:47;11.30;99.90
43695;DHT22;29300;43.560;1.294;2022-12-24T17:59:13;11.30;99.90